Bates, Arkansas
Current Conditions -  °F | °C
As of 7:35 AM on Thursday 18 Dec 2014 (Local Time) from KRKR Reporting Station
Haze Haze  
Wind Chill: 37°   Ceiling: 400
Heat Index: 37°   Visibility: 4mi
Dew Point: 35°   Wind: 0mph
Humidity: 94%   Direction: NA
Pressure: 30.2"   Gusts: NA
Location:  34.91°N, 94.39°W
Report Text: KRKR 181335Z AUTO 00000KT 4SM BR OVC004 03/02 A3020 RMK AO2 T00270018
Loading
Personal Weather Stations






























Interactive Weather Map New forecast layout! Learn more

10-Day Weather Forecast

Advertisements
Track Severe Weather on mobile